createdAt,value
2022-10-19T00:01:19.495Z,20.38
2022-10-19T00:03:51.752Z,20.80
2022-10-19T00:06:26.206Z,18.23
2022-10-19T00:09:08.726Z,14.00
2022-10-19T00:11:39.378Z,16.92
2022-10-19T00:14:07.577Z,16.33
2022-10-19T00:16:39.528Z,18.95
2022-10-19T00:19:11.596Z,13.00
2022-10-19T00:21:41.183Z,13.93
2022-10-19T00:24:09.735Z,17.00
2022-10-19T00:26:37.430Z,17.65
2022-10-19T00:29:06.915Z,16.73
2022-10-19T00:31:35.158Z,13.55
2022-10-19T00:34:03.670Z,15.57
2022-10-19T00:36:35.215Z,16.13
2022-10-19T00:39:05.259Z,18.60
2022-10-19T00:41:35.546Z,18.77
2022-10-19T00:44:14.135Z,11.85
2022-10-19T00:46:44.275Z,20.73
2022-10-19T00:49:24.885Z,18.35
2022-10-19T00:51:56.131Z,19.38
2022-10-19T00:54:24.337Z,18.70
2022-10-19T00:56:55.143Z,18.90
2022-10-19T00:59:25.481Z,20.70
2022-10-19T01:01:54.650Z,17.55
2022-10-19T01:04:27.552Z,16.33
2022-10-19T01:06:57.637Z,14.75
2022-10-19T01:09:25.396Z,17.40
2022-10-19T01:12:18.303Z,16.23
2022-10-19T01:15:10.589Z,20.05
2022-10-19T01:17:47.356Z,18.30
2022-10-19T01:20:36.531Z,18.52
2022-10-19T01:23:36.990Z,15.93
2022-10-19T01:26:20.292Z,19.02
2022-10-19T01:29:03.923Z,16.80
2022-10-19T01:31:43.098Z,17.05
2022-10-19T01:34:28.295Z,16.58
2022-10-19T01:37:41.059Z,19.50
2022-10-19T01:40:36.676Z,14.73
2022-10-19T01:43:26.162Z,21.10
2022-10-19T01:46:03.273Z,16.63
2022-10-19T01:48:35.988Z,15.35
2022-10-19T01:51:21.904Z,17.90
2022-10-19T01:53:57.271Z,20.70
2022-10-19T01:56:28.127Z,15.80
2022-10-19T01:59:00.314Z,17.80
2022-10-19T02:01:31.514Z,21.08
2022-10-19T02:04:01.168Z,16.85
2022-10-19T02:06:28.959Z,14.75
2022-10-19T02:08:57.462Z,16.48
2022-10-19T02:11:25.409Z,13.98
2022-10-19T02:14:12.381Z,16.70
2022-10-19T02:16:53.110Z,19.15
2022-10-19T02:21:57.492Z,16.15
2022-10-19T02:24:25.803Z,21.70
2022-10-19T02:26:55.132Z,16.55
2022-10-19T02:29:24.192Z,13.32
2022-10-19T02:31:52.028Z,16.25
2022-10-19T02:34:20.146Z,17.50
2022-10-19T02:36:48.661Z,17.20
2022-10-19T02:39:17.656Z,19.83
2022-10-19T02:41:52.463Z,16.48
2022-10-19T02:44:26.563Z,19.13
2022-10-19T02:47:06.757Z,20.02
2022-10-19T02:49:37.207Z,18.13
2022-10-19T02:52:08.275Z,16.17
2022-10-19T02:54:36.346Z,18.10
2022-10-19T02:57:25.663Z,14.85
2022-10-19T02:59:53.856Z,16.30
2022-10-19T03:02:21.778Z,18.08
2022-10-19T03:04:49.487Z,17.27
2022-10-19T03:07:19.823Z,20.15
2022-10-19T03:09:47.890Z,17.95
2022-10-19T03:12:16.285Z,16.65
2022-10-19T03:14:44.473Z,19.48
2022-10-19T03:17:12.289Z,13.80
2022-10-19T03:19:40.187Z,14.20
2022-10-19T03:22:08.187Z,13.68
2022-10-19T03:24:35.882Z,13.80
2022-10-19T03:27:03.607Z,19.20
2022-10-19T03:29:31.538Z,16.63
2022-10-19T03:31:59.226Z,18.02
2022-10-19T03:34:26.932Z,15.18
2022-10-19T03:36:54.580Z,15.50
2022-10-19T03:39:22.323Z,19.30
2022-10-19T03:41:52.757Z,16.55
2022-10-19T03:44:20.461Z,17.13
2022-10-19T03:46:48.541Z,13.63
2022-10-19T03:49:16.517Z,16.08
2022-10-19T03:51:44.223Z,20.88
2022-10-19T03:54:14.941Z,20.02
2022-10-19T03:56:43.370Z,18.92
2022-10-19T03:59:14.670Z,15.57
2022-10-19T04:01:45.410Z,16.50
2022-10-19T04:04:15.925Z,17.00
2022-10-19T04:06:46.794Z,19.20
2022-10-19T04:09:17.510Z,17.08
2022-10-19T04:11:45.295Z,12.23
2022-10-19T04:14:22.754Z,14.23
2022-10-19T04:17:02.297Z,15.57
2022-10-19T04:19:30.214Z,14.65
2022-10-19T04:21:58.267Z,15.95
2022-10-19T04:24:26.108Z,14.88
2022-10-19T04:26:56.021Z,18.05
2022-10-19T04:29:29.547Z,12.77
2022-10-19T04:31:59.798Z,15.27
2022-10-19T04:34:27.648Z,15.07
2022-10-19T04:36:55.600Z,12.02
2022-10-19T04:39:23.567Z,16.30
2022-10-19T04:41:51.231Z,13.90
2022-10-19T04:44:19.353Z,17.38
2022-10-19T04:46:47.368Z,17.75
2022-10-19T04:49:17.845Z,15.18
2022-10-19T04:51:48.025Z,17.05
2022-10-19T04:54:15.907Z,14.40
2022-10-19T04:56:44.996Z,22.20
2022-10-19T04:59:12.794Z,22.67
2022-10-19T05:01:46.550Z,23.05
2022-10-19T05:04:15.079Z,20.58
2022-10-19T05:06:42.814Z,26.02
2022-10-19T05:09:10.437Z,51.42
2022-10-19T05:11:38.137Z,49.58
2022-10-19T05:14:05.867Z,36.58
2022-10-19T05:16:33.716Z,28.92
2022-10-19T05:19:01.812Z,22.13
2022-10-19T05:21:30.163Z,19.17
2022-10-19T05:23:57.940Z,20.33
2022-10-19T05:26:27.895Z,25.05
2022-10-19T05:28:59.511Z,26.00
2022-10-19T05:31:30.398Z,21.20
2022-10-19T05:33:58.696Z,16.92
2022-10-19T05:36:37.154Z,18.98
2022-10-19T05:39:13.414Z,19.88
2022-10-19T05:41:44.011Z,18.60
2022-10-19T05:44:20.782Z,19.35
2022-10-19T05:46:50.644Z,15.15
2022-10-19T05:49:21.411Z,19.58
2022-10-19T05:51:50.450Z,16.00
2022-10-19T05:54:18.436Z,15.43
2022-10-19T05:56:47.277Z,16.67
2022-10-19T05:59:20.130Z,19.40
2022-10-19T06:01:48.546Z,16.42
2022-10-19T06:06:45.995Z,17.13
2022-10-19T06:09:13.878Z,18.90
2022-10-19T06:11:43.369Z,18.52
2022-10-19T06:14:16.239Z,18.08
2022-10-19T06:16:46.170Z,19.20
2022-10-19T06:19:14.751Z,17.83
2022-10-19T06:21:45.973Z,21.45
2022-10-19T06:24:14.261Z,20.20
2022-10-19T06:26:41.976Z,19.17
2022-10-19T06:29:10.515Z,17.02
2022-10-19T06:31:38.603Z,17.40
2022-10-19T06:34:07.049Z,19.58
2022-10-19T06:36:35.134Z,18.20
2022-10-19T06:39:03.007Z,19.90
2022-10-19T06:41:31.909Z,21.73
2022-10-19T06:44:14.767Z,23.83
2022-10-19T06:46:42.526Z,49.03
2022-10-19T06:49:13.117Z,55.75
2022-10-19T06:51:41.134Z,57.47
2022-10-19T06:54:09.409Z,30.83
2022-10-19T06:56:37.196Z,30.13
2022-10-19T06:59:04.985Z,30.48
2022-10-19T07:01:32.638Z,26.10
2022-10-19T07:04:00.336Z,42.45
2022-10-19T07:06:29.014Z,37.17
2022-10-19T07:08:56.744Z,28.63
2022-10-19T07:11:24.551Z,31.73
2022-10-19T07:13:53.635Z,29.77
2022-10-19T07:16:21.988Z,23.10
2022-10-19T07:18:52.266Z,30.25
2022-10-19T07:21:22.640Z,28.85
2022-10-19T07:23:50.687Z,22.10
2022-10-19T07:26:26.686Z,22.50
2022-10-19T07:28:56.838Z,26.93
2022-10-19T07:31:26.870Z,25.02
2022-10-19T07:33:59.159Z,24.48
2022-10-19T07:36:28.951Z,23.95
2022-10-19T07:38:57.158Z,20.67
2022-10-19T07:41:26.740Z,15.95
2022-10-19T07:43:55.129Z,22.23
2022-10-19T07:46:25.615Z,22.63
2022-10-19T07:48:54.036Z,21.38
2022-10-19T07:51:23.094Z,23.40
2022-10-19T07:53:51.295Z,17.42
2022-10-19T07:56:21.326Z,18.98
2022-10-19T07:58:50.577Z,24.10
2022-10-19T08:01:25.027Z,23.15
2022-10-19T08:06:41.934Z,24.95
2022-10-19T08:09:11.303Z,22.40
2022-10-19T08:11:43.358Z,23.25
2022-10-19T08:14:11.083Z,24.90
2022-10-19T08:16:41.668Z,31.85
2022-10-19T08:19:14.677Z,22.67
2022-10-19T08:21:44.879Z,28.95
2022-10-19T08:24:18.231Z,24.08
2022-10-19T08:26:46.736Z,28.10
2022-10-19T08:29:17.874Z,28.33
2022-10-19T08:31:47.170Z,18.90
2022-10-19T08:34:15.683Z,19.85
2022-10-19T08:36:43.847Z,14.82
2022-10-19T08:39:13.025Z,20.30
2022-10-19T08:41:40.671Z,20.90
2022-10-19T08:44:30.813Z,18.58
2022-10-19T08:47:02.692Z,20.13
2022-10-19T08:49:32.284Z,28.75
2022-10-19T08:52:19.805Z,26.20
2022-10-19T08:54:53.655Z,35.28
2022-10-19T08:57:33.739Z,37.45
2022-10-19T09:00:23.282Z,39.08
2022-10-19T09:03:03.753Z,40.05
2022-10-19T09:05:52.919Z,34.40
2022-10-19T09:08:21.153Z,42.50
2022-10-19T09:10:51.490Z,48.83
2022-10-19T09:13:29.218Z,48.67
2022-10-19T09:16:05.096Z,49.88
2022-10-19T09:18:34.726Z,54.22
2022-10-19T09:21:09.619Z,43.92
2022-10-19T09:23:42.078Z,38.67
2022-10-19T09:26:22.186Z,35.85
2022-10-19T09:28:59.781Z,36.05
2022-10-19T09:31:34.113Z,38.08
2022-10-19T09:34:30.277Z,34.00
2022-10-19T09:36:59.308Z,34.33
2022-10-19T09:39:29.876Z,38.05
2022-10-19T09:42:00.273Z,36.78
2022-10-19T09:44:28.087Z,41.03
2022-10-19T09:47:36.091Z,34.25
2022-10-19T09:50:29.831Z,35.15
2022-10-19T09:52:59.924Z,38.17
2022-10-19T09:55:31.143Z,30.65
2022-10-19T09:58:04.767Z,88.53
2022-10-19T10:00:40.584Z,151.85
2022-10-19T10:03:10.035Z,134.88
2022-10-19T10:05:41.480Z,117.15
2022-10-19T10:08:15.629Z,91.00
2022-10-19T10:10:47.275Z,92.68
2022-10-19T10:13:20.475Z,77.63
2022-10-19T10:15:52.217Z,68.82
2022-10-19T10:18:20.520Z,57.85
2022-10-19T10:20:59.849Z,55.75
2022-10-19T10:23:34.009Z,43.47
2022-10-19T10:26:02.653Z,42.08
2022-10-19T10:28:31.053Z,59.00
2022-10-19T10:31:08.042Z,54.90
2022-10-19T10:33:45.124Z,62.33
2022-10-19T10:36:13.790Z,73.07
2022-10-19T10:38:53.229Z,67.43
2022-10-19T10:41:24.972Z,49.58
2022-10-19T10:44:07.171Z,58.63
2022-10-19T10:46:37.407Z,55.40
2022-10-19T10:49:08.382Z,51.47
2022-10-19T10:51:53.008Z,60.40
2022-10-19T10:54:23.271Z,51.92
2022-10-19T10:57:13.309Z,48.20
2022-10-19T11:00:08.063Z,43.30
2022-10-19T11:03:08.270Z,32.33
2022-10-19T11:05:41.481Z,34.05
2022-10-19T11:08:12.328Z,32.63
2022-10-19T11:10:46.877Z,30.15
2022-10-19T11:13:29.659Z,25.92
2022-10-19T11:16:15.052Z,24.08
2022-10-19T11:18:55.266Z,29.60
2022-10-19T11:21:31.357Z,31.42
2022-10-19T11:24:15.114Z,24.55
2022-10-19T11:26:54.897Z,21.70
2022-10-19T11:29:25.695Z,22.83
2022-10-19T11:31:55.607Z,26.00
2022-10-19T11:34:47.965Z,28.10
2022-10-19T11:37:45.529Z,24.88
2022-10-19T11:41:17.255Z,23.80
2022-10-19T11:44:11.633Z,22.20
2022-10-19T11:46:57.410Z,29.92
2022-10-19T11:49:44.890Z,25.33
2022-10-19T11:52:22.973Z,23.75
2022-10-19T11:55:00.651Z,20.48
2022-10-19T11:57:40.627Z,19.13
2022-10-19T12:00:37.691Z,21.75
2022-10-19T12:03:28.472Z,30.73
2022-10-19T12:06:28.605Z,32.80
2022-10-19T12:09:21.175Z,34.85
2022-10-19T12:12:27.889Z,39.55
2022-10-19T12:15:03.790Z,42.80
2022-10-19T12:17:36.407Z,33.53
2022-10-19T12:20:18.884Z,29.13
2022-10-19T12:22:49.634Z,26.67
2022-10-19T12:25:19.520Z,22.88
2022-10-19T12:27:49.448Z,25.35
2022-10-19T12:30:21.676Z,26.10
2022-10-19T12:33:20.329Z,25.33
2022-10-19T12:35:52.755Z,24.45
2022-10-19T12:38:27.936Z,26.05
2022-10-19T12:41:08.478Z,21.80
2022-10-19T12:43:45.128Z,23.85
2022-10-19T12:46:39.824Z,20.77
2022-10-19T12:49:30.951Z,24.33
2022-10-19T12:52:00.338Z,24.90
2022-10-19T12:54:40.031Z,33.95
2022-10-19T12:57:27.742Z,35.97
2022-10-19T13:00:26.206Z,32.60
2022-10-19T13:03:17.839Z,25.42
2022-10-19T13:05:57.214Z,30.08
2022-10-19T13:08:30.924Z,31.70
2022-10-19T13:11:15.150Z,32.58
2022-10-19T13:13:57.010Z,36.03
2022-10-19T13:16:36.791Z,35.90
2022-10-19T13:19:13.666Z,38.85
2022-10-19T13:22:04.099Z,30.38
2022-10-19T13:24:35.204Z,33.72
2022-10-19T13:27:02.980Z,26.55
2022-10-19T13:29:38.577Z,23.60
2022-10-19T13:32:29.451Z,29.33
2022-10-19T13:35:22.872Z,18.60
2022-10-19T13:38:12.192Z,25.33
2022-10-19T13:41:03.296Z,22.25
2022-10-19T13:43:32.872Z,27.15
2022-10-19T13:46:03.634Z,28.02
2022-10-19T13:48:38.085Z,18.98
2022-10-19T13:51:24.614Z,18.90
2022-10-19T13:54:29.534Z,26.93
2022-10-19T13:57:25.386Z,20.65
2022-10-19T14:00:11.436Z,19.50
2022-10-19T14:03:01.991Z,21.85
2022-10-19T14:06:00.510Z,23.20
2022-10-19T14:08:51.160Z,18.02
2022-10-19T14:11:25.155Z,16.98
2022-10-19T14:14:14.719Z,19.55
2022-10-19T14:17:04.437Z,22.23
2022-10-19T14:19:42.124Z,17.70
2022-10-19T14:22:45.242Z,23.10
2022-10-19T14:25:19.913Z,24.77
2022-10-19T14:27:50.812Z,20.58
2022-10-19T14:30:27.823Z,52.72
2022-10-19T14:32:59.459Z,69.13
2022-10-19T14:35:34.724Z,73.10
2022-10-19T14:38:05.738Z,57.15
2022-10-19T14:40:42.575Z,47.38
2022-10-19T14:43:23.937Z,42.08
2022-10-19T14:46:07.026Z,38.08
2022-10-19T14:48:37.032Z,33.83
2022-10-19T14:51:31.050Z,36.22
2022-10-19T14:54:12.514Z,31.98
2022-10-19T14:57:15.999Z,33.90
2022-10-19T14:59:47.814Z,31.08
2022-10-19T15:02:34.477Z,24.23
2022-10-19T15:05:05.132Z,23.77
2022-10-19T15:07:42.247Z,24.58
2022-10-19T15:10:29.366Z,25.75
2022-10-19T15:13:05.730Z,23.08
2022-10-19T15:15:35.651Z,24.10
2022-10-19T15:18:06.479Z,27.35
2022-10-19T15:20:49.291Z,21.95
2022-10-19T15:23:38.339Z,23.90
2022-10-19T15:26:17.347Z,25.42
2022-10-19T15:28:46.383Z,19.42
2022-10-19T15:31:15.582Z,22.00
2022-10-19T15:33:55.323Z,17.77
2022-10-19T15:36:24.516Z,21.67
2022-10-19T15:39:06.348Z,17.92
2022-10-19T15:41:45.980Z,18.05
2022-10-19T15:44:41.181Z,20.27
2022-10-19T15:47:15.173Z,20.70
2022-10-19T15:49:42.804Z,18.95
2022-10-19T15:52:25.054Z,17.65
2022-10-19T15:54:55.616Z,20.38
2022-10-19T15:57:35.487Z,17.75
2022-10-19T16:00:16.007Z,21.95
2022-10-19T16:02:44.255Z,23.30
2022-10-19T16:05:12.082Z,23.40
2022-10-19T16:07:41.236Z,19.60
2022-10-19T16:10:15.947Z,22.55
2022-10-19T16:12:43.859Z,18.88
2022-10-19T16:15:22.489Z,30.33
2022-10-19T16:17:53.905Z,20.13
2022-10-19T16:20:22.566Z,19.67
2022-10-19T16:22:50.492Z,23.25
2022-10-19T16:25:19.002Z,19.13
2022-10-19T16:27:46.942Z,19.65
2022-10-19T16:30:15.277Z,16.25
2022-10-19T16:32:43.111Z,21.58
2022-10-19T16:35:11.762Z,25.63
2022-10-19T16:37:39.825Z,23.55
2022-10-19T16:40:08.419Z,20.23
2022-10-19T16:42:36.322Z,24.17
2022-10-19T16:45:04.529Z,20.48
2022-10-19T16:47:32.269Z,21.77
2022-10-19T16:50:01.971Z,25.35
2022-10-19T16:52:34.768Z,24.55
2022-10-19T16:55:02.888Z,25.48
2022-10-19T16:57:30.766Z,18.17
2022-10-19T16:59:58.634Z,15.68
2022-10-19T17:02:26.631Z,16.50
2022-10-19T17:04:54.461Z,18.85
2022-10-19T17:07:23.195Z,16.50
2022-10-19T17:09:54.522Z,20.88
2022-10-19T17:12:22.789Z,26.85
2022-10-19T17:14:51.806Z,22.15
2022-10-19T17:17:19.581Z,23.05
2022-10-19T17:19:48.582Z,21.23
2022-10-19T17:22:16.343Z,23.08
2022-10-19T17:24:46.410Z,22.83
2022-10-19T17:27:14.308Z,22.38
2022-10-19T17:29:42.145Z,24.15
2022-10-19T17:32:10.516Z,18.27
2022-10-19T17:34:38.583Z,23.27
2022-10-19T17:37:06.318Z,18.77
2022-10-19T17:39:34.313Z,22.90
2022-10-19T17:42:03.423Z,27.05
2022-10-19T17:44:32.093Z,25.17
2022-10-19T17:47:01.566Z,19.73
2022-10-19T17:49:30.089Z,22.05
2022-10-19T17:51:58.357Z,24.35
2022-10-19T17:54:26.238Z,17.73
2022-10-19T17:56:54.104Z,24.95
2022-10-19T17:59:30.490Z,23.95
2022-10-19T18:02:04.593Z,26.08
2022-10-19T18:04:32.608Z,24.50
2022-10-19T18:07:00.520Z,18.27
2022-10-19T18:09:28.201Z,20.88
2022-10-19T18:11:55.974Z,25.42
2022-10-19T18:14:23.845Z,22.73
2022-10-19T18:16:52.187Z,18.15
2022-10-19T18:19:20.297Z,18.73
2022-10-19T18:21:49.243Z,23.73
2022-10-19T18:24:20.546Z,34.38
2022-10-19T18:26:50.617Z,32.45
2022-10-19T18:29:24.620Z,30.50
2022-10-19T18:31:53.437Z,30.80
2022-10-19T18:34:23.788Z,48.30
2022-10-19T18:36:54.830Z,46.50
2022-10-19T18:39:22.824Z,47.05
2022-10-19T18:41:54.695Z,54.25
2022-10-19T18:44:26.609Z,47.90
2022-10-19T18:46:57.108Z,53.47
2022-10-19T18:49:25.493Z,52.75
2022-10-19T18:51:55.475Z,38.97
2022-10-19T18:54:26.575Z,32.60
2022-10-19T18:56:55.532Z,29.67
2022-10-19T18:59:23.886Z,25.52
2022-10-19T19:01:52.535Z,24.42
2022-10-19T19:04:20.949Z,24.77
2022-10-19T19:06:48.739Z,23.23
2022-10-19T19:09:17.617Z,21.08
2022-10-19T19:11:45.620Z,22.63
2022-10-19T19:14:21.145Z,25.70
2022-10-19T19:16:48.912Z,29.48
2022-10-19T19:19:18.829Z,21.35
2022-10-19T19:21:47.054Z,20.90
2022-10-19T19:24:19.425Z,22.45
2022-10-19T19:26:50.199Z,20.10
2022-10-19T19:29:18.906Z,21.75
2022-10-19T19:31:48.009Z,19.67
2022-10-19T19:34:16.320Z,21.42
2022-10-19T19:36:48.419Z,24.08
2022-10-19T19:39:19.542Z,24.98
2022-10-19T19:41:49.328Z,23.00
2022-10-19T19:44:17.960Z,26.45
2022-10-19T19:46:46.290Z,28.65
2022-10-19T19:49:14.297Z,22.75
2022-10-19T19:51:42.228Z,21.23
2022-10-19T19:54:10.091Z,23.02
2022-10-19T19:56:39.519Z,22.58
2022-10-19T19:59:07.447Z,22.73
2022-10-19T20:01:37.812Z,24.70
2022-10-19T20:04:06.760Z,20.73
2022-10-19T20:06:37.580Z,19.42
2022-10-19T20:09:07.672Z,20.10
2022-10-19T20:11:39.667Z,20.92
2022-10-19T20:14:10.606Z,21.73
2022-10-19T20:16:38.538Z,24.75
2022-10-19T20:19:11.498Z,25.35
2022-10-19T20:21:39.992Z,25.95
2022-10-19T20:24:09.596Z,24.02
2022-10-19T20:26:37.780Z,23.02
2022-10-19T20:29:07.208Z,21.52
2022-10-19T20:31:39.604Z,20.02
2022-10-19T20:34:10.838Z,23.80
2022-10-19T20:36:38.831Z,21.40
2022-10-19T20:39:07.208Z,23.88
2022-10-19T20:41:35.527Z,20.10
2022-10-19T20:44:03.287Z,22.52
2022-10-19T20:46:32.044Z,22.40
2022-10-19T20:49:01.735Z,21.13
2022-10-19T20:51:37.705Z,18.65
2022-10-19T20:54:08.261Z,24.08
2022-10-19T20:56:38.236Z,18.85
2022-10-19T20:59:12.184Z,18.42
2022-10-19T21:01:41.423Z,19.58
2022-10-19T21:04:11.979Z,24.48
2022-10-19T21:06:42.432Z,24.60
2022-10-19T21:09:11.427Z,28.35
2022-10-19T21:11:41.222Z,19.67
2022-10-19T21:14:13.370Z,21.48
2022-10-19T21:16:41.754Z,18.13
2022-10-19T21:19:15.975Z,18.67
2022-10-19T21:21:47.033Z,24.73
2022-10-19T21:24:18.209Z,23.05
2022-10-19T21:26:46.073Z,21.58
2022-10-19T21:29:15.724Z,21.15
2022-10-19T21:31:48.875Z,18.10
2022-10-19T21:34:23.268Z,17.98
2022-10-19T21:36:51.551Z,19.02
2022-10-19T21:39:20.000Z,17.85
2022-10-19T21:41:48.154Z,19.88
2022-10-19T21:44:17.355Z,24.48
2022-10-19T21:46:47.851Z,22.02
2022-10-19T21:49:15.759Z,22.73
2022-10-19T21:51:54.544Z,19.70
2022-10-19T21:54:25.105Z,21.05
2022-10-19T21:56:55.593Z,22.98
2022-10-19T21:59:25.094Z,15.60
2022-10-19T22:01:55.754Z,18.67
2022-10-19T22:04:24.150Z,20.40
2022-10-19T22:06:51.962Z,14.65
2022-10-19T22:09:21.261Z,17.85
2022-10-19T22:11:49.127Z,13.60
2022-10-19T22:14:17.931Z,20.10
2022-10-19T22:16:45.793Z,19.05
2022-10-19T22:19:14.250Z,17.08
2022-10-19T22:21:42.007Z,15.95
2022-10-19T22:24:13.711Z,19.17
2022-10-19T22:26:44.568Z,17.05
2022-10-19T22:29:12.994Z,16.20
2022-10-19T22:31:41.020Z,18.05
2022-10-19T22:34:15.127Z,20.65
2022-10-19T22:36:43.722Z,20.55
2022-10-19T22:39:11.946Z,22.45
2022-10-19T22:42:36.249Z,19.70
2022-10-19T22:45:22.489Z,21.30
2022-10-19T22:47:50.176Z,17.02
2022-10-19T22:50:18.107Z,15.68
2022-10-19T22:53:04.758Z,16.15
2022-10-19T22:55:32.874Z,19.95
2022-10-19T22:58:00.716Z,21.52
2022-10-19T23:00:29.884Z,16.45
2022-10-19T23:02:57.674Z,18.73
2022-10-19T23:05:25.418Z,15.68
2022-10-19T23:07:53.264Z,20.13
2022-10-19T23:10:21.367Z,22.08
2022-10-19T23:12:53.129Z,19.15
2022-10-19T23:15:21.988Z,18.48
2022-10-19T23:17:49.797Z,16.02
2022-10-19T23:20:17.566Z,17.92
2022-10-19T23:22:45.308Z,16.52
2022-10-19T23:25:13.115Z,17.08
2022-10-19T23:27:40.839Z,15.35
2022-10-19T23:30:09.256Z,18.20
2022-10-19T23:32:37.024Z,14.38
2022-10-19T23:35:05.307Z,19.30
2022-10-19T23:37:34.917Z,18.20
2022-10-19T23:40:03.642Z,18.17
2022-10-19T23:42:31.326Z,15.07
2022-10-19T23:45:00.626Z,17.35
2022-10-19T23:47:28.374Z,22.17
2022-10-19T23:49:55.970Z,17.67
2022-10-19T23:52:23.755Z,15.10
2022-10-19T23:54:51.411Z,17.02
2022-10-19T23:57:19.150Z,15.68
2022-10-19T23:59:46.898Z,18.67
